createdAt,value
2023-03-26T00:02:21.159Z,617.00
2023-03-26T00:06:21.115Z,615.00
2023-03-26T00:10:21.057Z,630.00
2023-03-26T00:14:21.031Z,623.00
2023-03-26T00:18:21.008Z,638.00
2023-03-26T00:22:20.912Z,620.00
2023-03-26T00:26:20.900Z,602.00
2023-03-26T00:30:20.869Z,605.00
2023-03-26T00:34:20.819Z,684.00
2023-03-26T00:38:20.779Z,648.00
2023-03-26T00:42:20.749Z,706.00
2023-03-26T00:46:20.778Z,781.00
2023-03-26T00:50:20.666Z,792.00
2023-03-26T00:54:20.640Z,835.00
2023-03-26T00:58:20.627Z,825.00
2023-03-26T01:02:20.582Z,862.00
2023-03-26T01:06:20.513Z,885.00
2023-03-26T01:10:20.468Z,852.00
2023-03-26T01:14:20.502Z,850.00
2023-03-26T01:18:20.434Z,778.00
2023-03-26T01:22:20.468Z,733.00
2023-03-26T01:26:20.588Z,671.00
2023-03-26T01:30:20.744Z,635.00
2023-03-26T01:34:20.890Z,637.00
2023-03-26T01:38:21.131Z,644.00
2023-03-26T01:42:21.245Z,639.00
2023-03-26T01:46:21.380Z,622.00
2023-03-26T01:50:21.534Z,610.00
2023-03-26T01:54:21.725Z,584.00
2023-03-26T01:58:21.882Z,582.00
2023-03-26T02:02:22.164Z,585.00
2023-03-26T02:06:22.233Z,597.00
2023-03-26T02:10:22.395Z,618.00
2023-03-26T02:14:22.608Z,614.00
2023-03-26T02:18:22.832Z,643.00
2023-03-26T02:22:23.001Z,657.00
2023-03-26T02:26:23.257Z,710.00
2023-03-26T02:30:23.184Z,813.00
2023-03-26T02:34:23.165Z,854.00
2023-03-26T02:38:23.101Z,923.00
2023-03-26T02:42:23.095Z,969.00
2023-03-26T02:46:23.108Z,992.00
2023-03-26T02:50:23.024Z,1062.00
2023-03-26T02:54:22.944Z,1064.00
2023-03-26T02:58:22.926Z,1118.00
2023-03-26T03:02:22.937Z,1123.00
2023-03-26T03:06:23.016Z,1152.00
2023-03-26T03:10:22.972Z,1179.00
2023-03-26T03:14:22.894Z,1183.00
2023-03-26T03:18:22.852Z,1188.00
2023-03-26T03:22:22.822Z,1203.00
2023-03-26T03:26:22.834Z,1221.00
2023-03-26T03:30:22.774Z,1230.00
2023-03-26T03:34:22.725Z,1258.00
2023-03-26T03:38:22.696Z,1244.00
2023-03-26T03:42:22.646Z,1236.00
2023-03-26T03:46:22.633Z,1247.00
2023-03-26T03:50:22.567Z,1222.00
2023-03-26T03:54:22.543Z,1237.00
2023-03-26T03:58:22.512Z,1269.00
2023-03-26T04:02:22.605Z,1290.00
2023-03-26T04:06:22.505Z,1325.00
2023-03-26T04:10:22.498Z,1347.00
2023-03-26T04:14:22.474Z,1368.00
2023-03-26T04:18:22.446Z,1392.00
2023-03-26T04:22:22.477Z,1423.00
2023-03-26T04:26:22.425Z,1426.00
2023-03-26T04:30:22.454Z,1427.00
2023-03-26T04:34:22.383Z,1447.00
2023-03-26T04:38:22.407Z,1463.00
2023-03-26T04:42:22.399Z,1465.00
2023-03-26T04:46:22.388Z,1478.00
2023-03-26T04:50:22.397Z,1447.00
2023-03-26T04:54:22.346Z,1450.00
2023-03-26T04:58:22.382Z,1303.00
2023-03-26T05:02:22.392Z,1219.00
2023-03-26T05:06:22.391Z,1199.00
2023-03-26T05:10:22.422Z,1238.00
2023-03-26T05:14:22.389Z,1305.00
2023-03-26T05:18:22.372Z,1338.00
2023-03-26T05:22:22.363Z,1353.00
2023-03-26T05:26:22.366Z,1402.00
2023-03-26T05:30:22.435Z,1457.00
2023-03-26T05:34:22.323Z,1493.00
2023-03-26T05:38:22.325Z,1549.00
2023-03-26T05:42:22.280Z,1574.00
2023-03-26T05:46:22.311Z,1625.00
2023-03-26T05:50:22.311Z,1646.00
2023-03-26T05:54:22.302Z,1613.00
2023-03-26T05:58:22.282Z,1591.00
2023-03-26T06:02:22.361Z,1551.00
2023-03-26T06:06:22.322Z,1526.00
2023-03-26T06:10:22.322Z,1490.00
2023-03-26T06:14:22.328Z,1487.00
2023-03-26T06:18:22.363Z,1479.00
2023-03-26T06:22:22.386Z,1429.00
2023-03-26T06:26:22.381Z,1383.00
2023-03-26T06:30:22.497Z,1341.00
2023-03-26T06:34:22.418Z,1357.00
2023-03-26T06:38:22.411Z,1382.00
2023-03-26T06:42:22.451Z,1357.00
2023-03-26T06:46:23.409Z,1360.00
2023-03-26T06:50:22.360Z,1380.00
2023-03-26T06:54:22.366Z,1318.00
2023-03-26T06:58:22.279Z,1306.00
2023-03-26T07:02:22.388Z,1228.00
2023-03-26T07:06:22.222Z,1188.00
2023-03-26T07:10:22.184Z,1172.00
2023-03-26T07:14:22.174Z,1078.00
2023-03-26T07:18:22.080Z,1076.00
2023-03-26T07:22:22.444Z,1058.00
2023-03-26T07:26:22.165Z,1030.00
2023-03-26T07:30:22.242Z,945.00
2023-03-26T07:34:22.144Z,888.00
2023-03-26T07:38:22.156Z,835.00
2023-03-26T07:42:22.172Z,808.00
2023-03-26T07:46:22.229Z,738.00
2023-03-26T07:50:22.255Z,718.00
2023-03-26T07:54:22.144Z,668.00
2023-03-26T07:58:22.168Z,620.00
2023-03-26T08:02:22.236Z,632.00
2023-03-26T08:06:22.188Z,602.00
2023-03-26T08:10:22.211Z,640.00
2023-03-26T08:14:22.176Z,594.00
2023-03-26T08:18:22.234Z,579.00
2023-03-26T08:22:22.240Z,597.00
2023-03-26T08:26:22.240Z,570.00
2023-03-26T08:30:22.234Z,555.00
2023-03-26T08:34:22.240Z,509.00
2023-03-26T08:38:22.282Z,516.00
2023-03-26T08:42:22.321Z,508.00
2023-03-26T08:46:22.326Z,505.00
2023-03-26T08:50:22.865Z,518.00
2023-03-26T08:54:22.392Z,510.00
2023-03-26T08:58:22.377Z,538.00
2023-03-26T09:02:22.403Z,502.00
2023-03-26T09:06:24.230Z,522.00
2023-03-26T09:10:22.416Z,534.00
2023-03-26T09:14:22.351Z,506.00
2023-03-26T09:18:22.336Z,510.00
2023-03-26T09:22:22.314Z,505.00
2023-03-26T09:26:22.266Z,515.00
2023-03-26T09:30:22.233Z,534.00
2023-03-26T09:34:22.191Z,530.00
2023-03-26T09:38:22.142Z,545.00
2023-03-26T09:42:22.123Z,549.00
2023-03-26T09:46:22.153Z,550.00
2023-03-26T09:50:22.050Z,549.00
2023-03-26T09:54:22.010Z,570.00
2023-03-26T09:58:22.002Z,576.00
2023-03-26T10:02:21.961Z,540.00
2023-03-26T10:06:22.900Z,567.00
2023-03-26T10:10:21.914Z,581.00
2023-03-26T10:14:21.881Z,599.00
2023-03-26T10:18:27.910Z,598.00
2023-03-26T10:22:22.772Z,586.00
2023-03-26T10:26:21.731Z,587.00
2023-03-26T10:30:21.685Z,590.00
2023-03-26T10:34:29.352Z,566.00
2023-03-26T10:38:22.619Z,557.00
2023-03-26T10:42:21.568Z,586.00
2023-03-26T10:46:21.581Z,576.00
2023-03-26T10:50:22.738Z,560.00
2023-03-26T10:54:21.488Z,568.00
2023-03-26T10:58:21.436Z,550.00
2023-03-26T11:02:29.260Z,588.00
2023-03-26T11:06:22.388Z,588.00
2023-03-26T11:10:21.362Z,593.00
2023-03-26T11:14:31.831Z,585.00
2023-03-26T11:18:22.471Z,584.00
2023-03-26T11:22:21.229Z,590.00
2023-03-26T11:26:21.257Z,580.00
2023-03-26T11:30:21.145Z,622.00
2023-03-26T11:34:21.131Z,597.00
2023-03-26T11:38:21.117Z,602.00
2023-03-26T11:42:21.049Z,646.00
2023-03-26T11:46:21.096Z,620.00
2023-03-26T11:50:21.010Z,725.00
2023-03-26T11:54:21.076Z,589.00
2023-03-26T11:58:21.093Z,650.00
2023-03-26T12:02:21.180Z,643.00
2023-03-26T12:06:21.142Z,597.00
2023-03-26T12:10:21.204Z,596.00
2023-03-26T12:14:21.175Z,582.00
2023-03-26T12:18:21.221Z,579.00
2023-03-26T12:22:21.161Z,577.00
2023-03-26T12:26:21.115Z,572.00
2023-03-26T12:30:21.167Z,573.00
2023-03-26T12:34:21.105Z,571.00
2023-03-26T12:38:21.058Z,572.00
2023-03-26T12:44:41.739Z,571.00
2023-03-26T12:47:57.366Z,594.00
2023-03-26T12:50:34.190Z,586.00
2023-03-26T12:54:21.934Z,601.00
2023-03-26T12:58:20.911Z,627.00
2023-03-26T13:02:20.971Z,627.00
2023-03-26T13:06:20.826Z,633.00
2023-03-26T13:10:20.761Z,656.00
2023-03-26T13:14:20.746Z,854.00
2023-03-26T13:18:20.695Z,756.00
2023-03-26T13:22:20.665Z,881.00
2023-03-26T13:26:20.623Z,776.00
2023-03-26T13:30:20.585Z,655.00
2023-03-26T13:34:20.563Z,638.00
2023-03-26T13:38:20.532Z,600.00
2023-03-26T13:42:20.491Z,648.00
2023-03-26T13:46:20.546Z,615.00
2023-03-26T13:50:20.446Z,617.00
2023-03-26T13:54:20.372Z,606.00
2023-03-26T13:58:20.409Z,588.00
2023-03-26T14:02:20.281Z,596.00
2023-03-26T14:06:20.246Z,619.00
2023-03-26T14:10:20.204Z,603.00
2023-03-26T14:14:20.217Z,589.00
2023-03-26T14:18:20.164Z,587.00
2023-03-26T14:22:20.131Z,599.00
2023-03-26T14:26:20.071Z,632.00
2023-03-26T14:30:20.045Z,626.00
2023-03-26T14:34:19.986Z,665.00
2023-03-26T14:38:19.967Z,697.00
2023-03-26T14:42:19.963Z,766.00
2023-03-26T14:46:20.032Z,772.00
2023-03-26T14:50:19.979Z,790.00
2023-03-26T14:54:20.064Z,762.00
2023-03-26T14:58:19.982Z,849.00
2023-03-26T15:02:19.981Z,837.00
2023-03-26T15:06:20.002Z,879.00
2023-03-26T15:10:19.990Z,898.00
2023-03-26T15:14:20.012Z,793.00
2023-03-26T15:18:20.008Z,775.00
2023-03-26T15:22:20.038Z,799.00
2023-03-26T15:26:20.030Z,774.00
2023-03-26T15:30:20.034Z,1017.00
2023-03-26T15:34:20.015Z,839.00
2023-03-26T15:38:19.981Z,854.00
2023-03-26T15:42:20.007Z,846.00
2023-03-26T15:46:19.998Z,909.00
2023-03-26T15:50:19.981Z,876.00
2023-03-26T15:54:19.977Z,913.00
2023-03-26T15:58:19.931Z,1008.00
2023-03-26T16:02:19.957Z,1028.00
2023-03-26T16:06:19.919Z,1052.00
2023-03-26T16:10:19.938Z,1031.00
2023-03-26T16:14:21.393Z,1044.00
2023-03-26T16:18:19.900Z,1112.00
2023-03-26T16:22:19.872Z,1086.00
2023-03-26T16:26:19.818Z,1166.00
2023-03-26T16:30:20.862Z,1216.00
2023-03-26T16:34:19.740Z,1216.00
2023-03-26T16:38:19.710Z,1174.00
2023-03-26T16:42:19.670Z,1216.00
2023-03-26T16:46:19.639Z,1164.00
2023-03-26T16:50:19.591Z,1227.00
2023-03-26T16:54:19.582Z,1324.00
2023-03-26T16:58:19.494Z,1357.00
2023-03-26T17:02:19.529Z,1333.00
2023-03-26T17:06:19.453Z,1309.00
2023-03-26T17:10:19.404Z,1340.00
2023-03-26T17:14:19.371Z,1428.00
2023-03-26T17:18:19.430Z,1280.00
2023-03-26T17:22:19.297Z,1322.00
2023-03-26T17:26:19.268Z,1313.00
2023-03-26T17:30:19.223Z,1324.00
2023-03-26T17:34:19.226Z,1316.00
2023-03-26T17:38:19.167Z,1340.00
2023-03-26T17:42:19.191Z,1338.00
2023-03-26T17:46:19.238Z,1370.00
2023-03-26T17:50:19.281Z,1381.00
2023-03-26T17:54:19.337Z,1383.00
2023-03-26T17:58:19.399Z,1404.00
2023-03-26T18:02:19.513Z,1383.00
2023-03-26T18:06:19.590Z,1333.00
2023-03-26T18:10:19.657Z,1448.00
2023-03-26T18:14:19.723Z,1362.00
2023-03-26T18:18:19.892Z,1338.00
2023-03-26T18:22:19.966Z,1372.00
2023-03-26T18:26:20.025Z,1327.00
2023-03-26T18:30:20.123Z,1427.00
2023-03-26T18:34:20.228Z,1398.00
2023-03-26T18:38:36.072Z,1329.00
2023-03-26T18:42:22.656Z,1358.00
2023-03-26T18:46:20.362Z,1360.00
2023-03-26T18:50:20.219Z,1392.00
2023-03-26T18:54:20.182Z,1351.00
2023-03-26T18:58:20.168Z,1337.00
2023-03-26T19:02:20.214Z,1341.00
2023-03-26T19:06:20.109Z,1339.00
2023-03-26T19:10:20.239Z,1421.00
2023-03-26T19:14:20.343Z,1450.00
2023-03-26T19:18:20.449Z,1461.00
2023-03-26T19:22:20.640Z,1465.00
2023-03-26T19:26:20.683Z,1421.00
2023-03-26T19:30:20.828Z,1419.00
2023-03-26T19:34:21.004Z,1378.00
2023-03-26T19:38:21.141Z,1369.00
2023-03-26T19:42:21.297Z,1304.00
2023-03-26T19:46:21.468Z,1278.00
2023-03-26T19:50:21.626Z,1223.00
2023-03-26T19:54:21.788Z,1200.00
2023-03-26T19:58:21.977Z,1243.00
2023-03-26T20:02:22.222Z,1269.00
2023-03-26T20:06:28.116Z,1349.00
2023-03-26T20:10:23.275Z,1313.00
2023-03-26T20:14:22.235Z,1303.00
2023-03-26T20:18:22.322Z,1403.00
2023-03-26T20:22:22.493Z,1372.00
2023-03-26T20:26:22.691Z,1366.00
2023-03-26T20:30:36.793Z,1346.00
2023-03-26T20:34:23.818Z,1384.00
2023-03-26T20:38:32.869Z,1421.00
2023-03-26T20:42:23.769Z,1395.00
2023-03-26T20:46:22.699Z,1324.00
2023-03-26T20:50:22.786Z,1273.00
2023-03-26T20:54:23.101Z,1225.00
2023-03-26T20:58:31.237Z,1193.00
2023-03-26T21:02:24.277Z,1222.00
2023-03-26T21:06:23.166Z,1216.00
2023-03-26T21:10:23.320Z,1235.00
2023-03-26T21:14:23.569Z,1289.00
2023-03-26T21:18:23.778Z,1291.00
2023-03-26T21:22:23.965Z,1268.00
2023-03-26T21:26:23.957Z,1239.00
2023-03-26T21:30:23.908Z,1309.00
2023-03-26T21:34:23.871Z,1292.00
2023-03-26T21:38:23.833Z,1281.00
2023-03-26T21:42:23.805Z,1282.00
2023-03-26T21:46:24.692Z,1292.00
2023-03-26T21:50:23.750Z,1274.00
2023-03-26T21:54:23.701Z,1322.00
2023-03-26T21:58:23.643Z,1287.00
2023-03-26T22:02:23.834Z,1326.00
2023-03-26T22:06:23.773Z,1341.00
2023-03-26T22:10:23.740Z,1399.00
2023-03-26T22:14:23.676Z,1403.00
2023-03-26T22:18:23.658Z,1391.00
2023-03-26T22:22:23.614Z,1391.00
2023-03-26T22:26:23.578Z,1358.00
2023-03-26T22:30:23.557Z,1327.00
2023-03-26T22:34:23.524Z,1278.00
2023-03-26T22:38:23.486Z,1279.00
2023-03-26T22:42:23.662Z,1314.00
2023-03-26T22:46:23.864Z,1272.00
2023-03-26T22:50:23.988Z,1275.00
2023-03-26T22:54:24.100Z,1241.00
2023-03-26T22:58:24.033Z,1187.00
2023-03-26T23:02:24.096Z,1190.00
2023-03-26T23:06:23.969Z,1178.00
2023-03-26T23:10:23.942Z,1187.00
2023-03-26T23:14:23.857Z,1177.00
2023-03-26T23:18:23.855Z,1117.00
2023-03-26T23:22:23.794Z,1151.00
2023-03-26T23:26:23.791Z,1132.00
2023-03-26T23:30:23.731Z,1126.00
2023-03-26T23:34:23.706Z,1144.00
2023-03-26T23:38:23.659Z,1107.00
2023-03-26T23:42:29.045Z,1063.00
2023-03-26T23:46:24.617Z,1036.00
2023-03-26T23:50:23.577Z,1010.00
2023-03-26T23:54:23.512Z,1063.00
2023-03-26T23:58:23.480Z,1153.00
